sensor_id;sensor_type;location;lat;lon;timestamp;temperature;humidity
16955;DHT22;8594;52.052;8.354;2023-09-19T00:02:26;18.20;99.90
16955;DHT22;8594;52.052;8.354;2023-09-19T00:04:54;18.00;99.90
16955;DHT22;8594;52.052;8.354;2023-09-19T00:07:21;18.00;99.90
16955;DHT22;8594;52.052;8.354;2023-09-19T00:09:48;18.10;99.90
16955;DHT22;8594;52.052;8.354;2023-09-19T00:12:15;18.00;99.90
16955;DHT22;8594;52.052;8.354;2023-09-19T00:14:43;18.00;99.90
16955;DHT22;8594;52.052;8.354;2023-09-19T00:17:11;17.80;99.90
16955;DHT22;8594;52.052;8.354;2023-09-19T00:19:38;17.90;99.90
16955;DHT22;8594;52.052;8.354;2023-09-19T00:22:08;18.00;99.90
16955;DHT22;8594;52.052;8.354;2023-09-19T00:24:35;18.00;99.90
16955;DHT22;8594;52.052;8.354;2023-09-19T00:27:02;17.90;99.90
16955;DHT22;8594;52.052;8.354;2023-09-19T00:29:31;17.90;99.90
16955;DHT22;8594;52.052;8.354;2023-09-19T00:31:58;17.90;99.90
16955;DHT22;8594;52.052;8.354;2023-09-19T00:34:27;18.00;99.90
16955;DHT22;8594;52.052;8.354;2023-09-19T00:36:55;18.00;99.90
16955;DHT22;8594;52.052;8.354;2023-09-19T00:39:22;18.00;99.90
16955;DHT22;8594;52.052;8.354;2023-09-19T00:41:53;17.90;99.90
16955;DHT22;8594;52.052;8.354;2023-09-19T00:44:20;17.90;99.90
16955;DHT22;8594;52.052;8.354;2023-09-19T00:46:48;18.00;99.90
16955;DHT22;8594;52.052;8.354;2023-09-19T00:49:16;17.90;99.90
16955;DHT22;8594;52.052;8.354;2023-09-19T00:51:47;17.80;99.90
16955;DHT22;8594;52.052;8.354;2023-09-19T00:54:15;17.60;99.90
16955;DHT22;8594;52.052;8.354;2023-09-19T00:56:45;17.70;99.90
16955;DHT22;8594;52.052;8.354;2023-09-19T00:59:14;17.70;99.90
16955;DHT22;8594;52.052;8.354;2023-09-19T01:01:42;17.80;99.90
16955;DHT22;8594;52.052;8.354;2023-09-19T01:04:11;17.80;99.90
16955;DHT22;8594;52.052;8.354;2023-09-19T01:06:39;17.80;99.90
16955;DHT22;8594;52.052;8.354;2023-09-19T01:09:07;17.80;99.90
16955;DHT22;8594;52.052;8.354;2023-09-19T01:11:39;17.90;99.90
16955;DHT22;8594;52.052;8.354;2023-09-19T01:14:28;17.90;99.90
16955;DHT22;8594;52.052;8.354;2023-09-19T01:17:05;17.70;99.90
16955;DHT22;8594;52.052;8.354;2023-09-19T01:20:03;17.60;99.90
16955;DHT22;8594;52.052;8.354;2023-09-19T01:22:48;17.80;99.90
16955;DHT22;8594;52.052;8.354;2023-09-19T01:26:01;17.90;99.90
16955;DHT22;8594;52.052;8.354;2023-09-19T01:28:43;17.70;99.90
16955;DHT22;8594;52.052;8.354;2023-09-19T01:31:31;17.80;99.90
16955;DHT22;8594;52.052;8.354;2023-09-19T01:34:01;17.70;99.90
16955;DHT22;8594;52.052;8.354;2023-09-19T01:36:33;18.00;99.90
16955;DHT22;8594;52.052;8.354;2023-09-19T01:39:04;18.00;99.90
16955;DHT22;8594;52.052;8.354;2023-09-19T01:41:50;18.10;99.90
16955;DHT22;8594;52.052;8.354;2023-09-19T01:44:28;18.20;99.90
16955;DHT22;8594;52.052;8.354;2023-09-19T01:47:11;18.00;99.90
16955;DHT22;8594;52.052;8.354;2023-09-19T01:49:55;18.00;99.90
16955;DHT22;8594;52.052;8.354;2023-09-19T01:52:29;17.90;99.90
16955;DHT22;8594;52.052;8.354;2023-09-19T01:55:05;18.00;99.90
16955;DHT22;8594;52.052;8.354;2023-09-19T01:57:41;18.10;99.90
16955;DHT22;8594;52.052;8.354;2023-09-19T02:00:13;18.00;99.90
16955;DHT22;8594;52.052;8.354;2023-09-19T02:02:47;18.00;99.90
16955;DHT22;8594;52.052;8.354;2023-09-19T02:05:22;17.90;99.90
16955;DHT22;8594;52.052;8.354;2023-09-19T02:10:18;18.00;99.90
16955;DHT22;8594;52.052;8.354;2023-09-19T02:12:45;18.20;99.90
16955;DHT22;8594;52.052;8.354;2023-09-19T02:15:12;18.20;99.90
16955;DHT22;8594;52.052;8.354;2023-09-19T02:17:41;18.20;99.90
16955;DHT22;8594;52.052;8.354;2023-09-19T02:20:11;17.90;99.90
16955;DHT22;8594;52.052;8.354;2023-09-19T02:22:40;17.90;99.90
16955;DHT22;8594;52.052;8.354;2023-09-19T02:25:08;17.90;99.90
16955;DHT22;8594;52.052;8.354;2023-09-19T02:27:35;18.00;99.90
16955;DHT22;8594;52.052;8.354;2023-09-19T02:30:03;17.90;99.90
16955;DHT22;8594;52.052;8.354;2023-09-19T02:32:32;18.10;99.90
16955;DHT22;8594;52.052;8.354;2023-09-19T02:35:05;18.10;99.90
16955;DHT22;8594;52.052;8.354;2023-09-19T02:37:34;18.20;99.90
16955;DHT22;8594;52.052;8.354;2023-09-19T02:40:02;18.00;99.90
16955;DHT22;8594;52.052;8.354;2023-09-19T02:42:44;17.90;99.90
16955;DHT22;8594;52.052;8.354;2023-09-19T02:45:14;18.10;99.90
16955;DHT22;8594;52.052;8.354;2023-09-19T02:47:43;18.00;99.90
16955;DHT22;8594;52.052;8.354;2023-09-19T02:50:10;18.00;99.90
16955;DHT22;8594;52.052;8.354;2023-09-19T02:52:41;18.10;99.90
16955;DHT22;8594;52.052;8.354;2023-09-19T02:55:09;18.20;99.90
16955;DHT22;8594;52.052;8.354;2023-09-19T02:57:37;18.10;99.90
16955;DHT22;8594;52.052;8.354;2023-09-19T03:00:07;17.90;99.90
16955;DHT22;8594;52.052;8.354;2023-09-19T03:02:36;17.80;99.90
16955;DHT22;8594;52.052;8.354;2023-09-19T03:05:04;17.80;99.90
16955;DHT22;8594;52.052;8.354;2023-09-19T03:07:32;17.90;99.90
16955;DHT22;8594;52.052;8.354;2023-09-19T03:10:01;17.90;99.90
16955;DHT22;8594;52.052;8.354;2023-09-19T03:12:28;18.00;99.90
16955;DHT22;8594;52.052;8.354;2023-09-19T03:14:55;18.00;99.90
16955;DHT22;8594;52.052;8.354;2023-09-19T03:17:22;17.90;99.90
16955;DHT22;8594;52.052;8.354;2023-09-19T03:19:49;17.70;99.90
16955;DHT22;8594;52.052;8.354;2023-09-19T03:22:16;17.50;99.90
16955;DHT22;8594;52.052;8.354;2023-09-19T03:24:43;17.60;99.90
16955;DHT22;8594;52.052;8.354;2023-09-19T03:27:13;17.60;99.90
16955;DHT22;8594;52.052;8.354;2023-09-19T03:29:41;17.40;99.90
16955;DHT22;8594;52.052;8.354;2023-09-19T03:32:08;17.30;99.90
16955;DHT22;8594;52.052;8.354;2023-09-19T03:34:36;17.30;99.90
16955;DHT22;8594;52.052;8.354;2023-09-19T03:37:06;17.50;99.90
16955;DHT22;8594;52.052;8.354;2023-09-19T03:39:33;17.20;99.90
16955;DHT22;8594;52.052;8.354;2023-09-19T03:42:00;17.40;99.90
16955;DHT22;8594;52.052;8.354;2023-09-19T03:44:29;17.40;99.90
16955;DHT22;8594;52.052;8.354;2023-09-19T03:46:56;17.50;99.90
16955;DHT22;8594;52.052;8.354;2023-09-19T03:49:23;17.40;99.90
16955;DHT22;8594;52.052;8.354;2023-09-19T03:51:50;17.30;99.90
16955;DHT22;8594;52.052;8.354;2023-09-19T03:54:17;17.30;99.90
16955;DHT22;8594;52.052;8.354;2023-09-19T03:56:45;17.20;99.90
16955;DHT22;8594;52.052;8.354;2023-09-19T03:59:12;17.30;99.90
16955;DHT22;8594;52.052;8.354;2023-09-19T04:01:40;17.40;99.90
16955;DHT22;8594;52.052;8.354;2023-09-19T04:04:08;17.10;99.90
16955;DHT22;8594;52.052;8.354;2023-09-19T04:06:35;17.10;99.90
16955;DHT22;8594;52.052;8.354;2023-09-19T04:09:03;16.70;99.90
16955;DHT22;8594;52.052;8.354;2023-09-19T04:11:32;16.60;99.90
16955;DHT22;8594;52.052;8.354;2023-09-19T04:14:02;16.90;99.90
16955;DHT22;8594;52.052;8.354;2023-09-19T04:16:29;16.90;99.90
16955;DHT22;8594;52.052;8.354;2023-09-19T04:18:58;16.80;99.90
16955;DHT22;8594;52.052;8.354;2023-09-19T04:21:24;16.70;99.90
16955;DHT22;8594;52.052;8.354;2023-09-19T04:23:52;16.60;99.90
16955;DHT22;8594;52.052;8.354;2023-09-19T04:26:18;16.70;99.90
16955;DHT22;8594;52.052;8.354;2023-09-19T04:28:45;16.70;99.90
16955;DHT22;8594;52.052;8.354;2023-09-19T04:31:12;16.80;99.90
16955;DHT22;8594;52.052;8.354;2023-09-19T04:33:39;16.70;99.90
16955;DHT22;8594;52.052;8.354;2023-09-19T04:36:07;16.70;99.90
16955;DHT22;8594;52.052;8.354;2023-09-19T04:38:35;16.70;99.90
16955;DHT22;8594;52.052;8.354;2023-09-19T04:41:02;16.60;99.90
16955;DHT22;8594;52.052;8.354;2023-09-19T04:43:29;16.50;99.90
16955;DHT22;8594;52.052;8.354;2023-09-19T04:45:56;16.70;99.90
16955;DHT22;8594;52.052;8.354;2023-09-19T04:48:25;16.60;99.90
16955;DHT22;8594;52.052;8.354;2023-09-19T04:50:54;16.60;99.90
16955;DHT22;8594;52.052;8.354;2023-09-19T04:53:22;16.70;99.90
16955;DHT22;8594;52.052;8.354;2023-09-19T04:55:50;16.60;99.90
16955;DHT22;8594;52.052;8.354;2023-09-19T04:58:21;16.60;99.90
16955;DHT22;8594;52.052;8.354;2023-09-19T05:00:48;16.70;99.90
16955;DHT22;8594;52.052;8.354;2023-09-19T05:03:16;16.70;99.90
16955;DHT22;8594;52.052;8.354;2023-09-19T05:05:46;16.60;99.90
16955;DHT22;8594;52.052;8.354;2023-09-19T05:08:13;16.80;99.90
16955;DHT22;8594;52.052;8.354;2023-09-19T05:10:42;16.70;99.90
16955;DHT22;8594;52.052;8.354;2023-09-19T05:13:10;16.60;99.90
16955;DHT22;8594;52.052;8.354;2023-09-19T05:15:37;16.50;99.90
16955;DHT22;8594;52.052;8.354;2023-09-19T05:18:05;16.30;99.90
16955;DHT22;8594;52.052;8.354;2023-09-19T05:20:32;16.40;99.90
16955;DHT22;8594;52.052;8.354;2023-09-19T05:23:02;16.50;99.90
16955;DHT22;8594;52.052;8.354;2023-09-19T05:25:33;16.40;99.90
16955;DHT22;8594;52.052;8.354;2023-09-19T05:28:05;16.50;99.90
16955;DHT22;8594;52.052;8.354;2023-09-19T05:30:34;16.40;99.90
16955;DHT22;8594;52.052;8.354;2023-09-19T05:33:01;16.30;99.90
16955;DHT22;8594;52.052;8.354;2023-09-19T05:35:30;16.30;99.90
16955;DHT22;8594;52.052;8.354;2023-09-19T05:37:58;16.20;99.90
16955;DHT22;8594;52.052;8.354;2023-09-19T05:40:25;16.10;99.90
16955;DHT22;8594;52.052;8.354;2023-09-19T05:42:53;16.30;99.90
16955;DHT22;8594;52.052;8.354;2023-09-19T05:45:21;16.40;99.90
16955;DHT22;8594;52.052;8.354;2023-09-19T05:47:48;16.20;99.90
16955;DHT22;8594;52.052;8.354;2023-09-19T05:50:16;16.20;99.90
16955;DHT22;8594;52.052;8.354;2023-09-19T05:52:51;16.40;99.90
16955;DHT22;8594;52.052;8.354;2023-09-19T05:55:18;16.40;99.90
16955;DHT22;8594;52.052;8.354;2023-09-19T05:57:49;16.40;99.90
16955;DHT22;8594;52.052;8.354;2023-09-19T06:00:17;16.30;99.90
16955;DHT22;8594;52.052;8.354;2023-09-19T06:02:50;16.20;99.90
16955;DHT22;8594;52.052;8.354;2023-09-19T06:05:18;16.30;99.90
16955;DHT22;8594;52.052;8.354;2023-09-19T06:07:45;16.30;99.90
16955;DHT22;8594;52.052;8.354;2023-09-19T06:10:12;16.10;99.90
16955;DHT22;8594;52.052;8.354;2023-09-19T06:12:40;16.10;99.90
16955;DHT22;8594;52.052;8.354;2023-09-19T06:15:10;16.10;99.90
16955;DHT22;8594;52.052;8.354;2023-09-19T06:17:41;16.20;99.90
16955;DHT22;8594;52.052;8.354;2023-09-19T06:20:10;16.30;99.90
16955;DHT22;8594;52.052;8.354;2023-09-19T06:22:40;16.30;99.90
16955;DHT22;8594;52.052;8.354;2023-09-19T06:25:08;16.10;99.90
16955;DHT22;8594;52.052;8.354;2023-09-19T06:27:37;16.30;99.90
16955;DHT22;8594;52.052;8.354;2023-09-19T06:30:07;16.40;99.90
16955;DHT22;8594;52.052;8.354;2023-09-19T06:32:35;16.30;99.90
16955;DHT22;8594;52.052;8.354;2023-09-19T06:35:02;16.40;99.90
16955;DHT22;8594;52.052;8.354;2023-09-19T06:37:34;16.30;99.90
16955;DHT22;8594;52.052;8.354;2023-09-19T06:40:01;16.40;99.90
16955;DHT22;8594;52.052;8.354;2023-09-19T06:42:31;16.40;99.90
16955;DHT22;8594;52.052;8.354;2023-09-19T06:44:58;16.50;99.90
16955;DHT22;8594;52.052;8.354;2023-09-19T06:47:25;16.60;99.90
16955;DHT22;8594;52.052;8.354;2023-09-19T06:49:52;16.70;99.90
16955;DHT22;8594;52.052;8.354;2023-09-19T06:52:19;16.80;99.90
16955;DHT22;8594;52.052;8.354;2023-09-19T06:54:49;16.80;99.90
16955;DHT22;8594;52.052;8.354;2023-09-19T06:57:18;16.70;99.90
16955;DHT22;8594;52.052;8.354;2023-09-19T06:59:45;16.90;99.90
16955;DHT22;8594;52.052;8.354;2023-09-19T07:02:12;16.80;99.90
16955;DHT22;8594;52.052;8.354;2023-09-19T07:04:39;16.90;99.90
16955;DHT22;8594;52.052;8.354;2023-09-19T07:07:06;17.00;99.90
16955;DHT22;8594;52.052;8.354;2023-09-19T07:09:34;16.90;99.90
16955;DHT22;8594;52.052;8.354;2023-09-19T07:12:02;16.80;99.90
16955;DHT22;8594;52.052;8.354;2023-09-19T07:14:30;16.80;99.90
16955;DHT22;8594;52.052;8.354;2023-09-19T07:16:57;16.80;99.90
16955;DHT22;8594;52.052;8.354;2023-09-19T07:19:25;16.90;99.90
16955;DHT22;8594;52.052;8.354;2023-09-19T07:21:53;17.00;99.90
16955;DHT22;8594;52.052;8.354;2023-09-19T07:24:20;16.90;99.90
16955;DHT22;8594;52.052;8.354;2023-09-19T07:26:49;17.30;99.90
16955;DHT22;8594;52.052;8.354;2023-09-19T07:29:17;17.30;99.90
16955;DHT22;8594;52.052;8.354;2023-09-19T07:31:44;17.40;99.90
16955;DHT22;8594;52.052;8.354;2023-09-19T07:34:12;17.30;99.90
16955;DHT22;8594;52.052;8.354;2023-09-19T07:36:40;17.70;99.90
16955;DHT22;8594;52.052;8.354;2023-09-19T07:39:07;17.90;99.90
16955;DHT22;8594;52.052;8.354;2023-09-19T07:41:34;18.30;99.90
16955;DHT22;8594;52.052;8.354;2023-09-19T07:44:01;18.70;99.90
16955;DHT22;8594;52.052;8.354;2023-09-19T07:46:30;18.60;99.90
16955;DHT22;8594;52.052;8.354;2023-09-19T07:48:57;18.50;99.90
16955;DHT22;8594;52.052;8.354;2023-09-19T07:51:25;18.40;99.90
16955;DHT22;8594;52.052;8.354;2023-09-19T07:53:52;18.50;99.90
16955;DHT22;8594;52.052;8.354;2023-09-19T07:56:20;18.50;99.90
16955;DHT22;8594;52.052;8.354;2023-09-19T07:58:48;18.10;99.90
16955;DHT22;8594;52.052;8.354;2023-09-19T08:01:15;18.10;99.90
16955;DHT22;8594;52.052;8.354;2023-09-19T08:03:43;18.30;99.90
16955;DHT22;8594;52.052;8.354;2023-09-19T08:06:12;18.40;99.90
16955;DHT22;8594;52.052;8.354;2023-09-19T08:08:39;18.20;99.90
16955;DHT22;8594;52.052;8.354;2023-09-19T08:11:07;17.90;99.90
16955;DHT22;8594;52.052;8.354;2023-09-19T08:13:37;17.80;99.90
16955;DHT22;8594;52.052;8.354;2023-09-19T08:16:06;18.00;99.90
16955;DHT22;8594;52.052;8.354;2023-09-19T08:18:33;18.00;99.90
16955;DHT22;8594;52.052;8.354;2023-09-19T08:21:02;18.30;99.90
16955;DHT22;8594;52.052;8.354;2023-09-19T08:23:28;18.40;99.90
16955;DHT22;8594;52.052;8.354;2023-09-19T08:25:57;18.20;99.90
16955;DHT22;8594;52.052;8.354;2023-09-19T08:28:28;18.10;99.90
16955;DHT22;8594;52.052;8.354;2023-09-19T08:30:55;18.00;99.90
16955;DHT22;8594;52.052;8.354;2023-09-19T08:33:23;18.20;99.90
16955;DHT22;8594;52.052;8.354;2023-09-19T08:35:50;18.60;99.90
16955;DHT22;8594;52.052;8.354;2023-09-19T08:38:18;18.70;99.90
16955;DHT22;8594;52.052;8.354;2023-09-19T08:40:45;18.80;99.90
16955;DHT22;8594;52.052;8.354;2023-09-19T08:43:12;18.60;99.90
16955;DHT22;8594;52.052;8.354;2023-09-19T08:45:39;18.30;99.90
16955;DHT22;8594;52.052;8.354;2023-09-19T08:48:16;18.50;99.90
16955;DHT22;8594;52.052;8.354;2023-09-19T08:50:52;18.50;99.90
16955;DHT22;8594;52.052;8.354;2023-09-19T08:53:34;18.70;99.90
16955;DHT22;8594;52.052;8.354;2023-09-19T08:56:09;18.90;99.90
16955;DHT22;8594;52.052;8.354;2023-09-19T08:58:43;18.70;99.90
16955;DHT22;8594;52.052;8.354;2023-09-19T09:01:15;18.50;99.90
16955;DHT22;8594;52.052;8.354;2023-09-19T09:03:48;18.20;99.90
16955;DHT22;8594;52.052;8.354;2023-09-19T09:06:16;18.30;99.90
16955;DHT22;8594;52.052;8.354;2023-09-19T09:08:47;18.50;99.90
16955;DHT22;8594;52.052;8.354;2023-09-19T09:11:16;18.60;99.90
16955;DHT22;8594;52.052;8.354;2023-09-19T09:13:44;18.60;99.90
16955;DHT22;8594;52.052;8.354;2023-09-19T09:16:12;18.90;99.90
16955;DHT22;8594;52.052;8.354;2023-09-19T09:18:43;18.70;99.90
16955;DHT22;8594;52.052;8.354;2023-09-19T09:21:10;18.70;99.90
16955;DHT22;8594;52.052;8.354;2023-09-19T09:23:39;18.80;99.90
16955;DHT22;8594;52.052;8.354;2023-09-19T09:26:07;19.10;99.90
16955;DHT22;8594;52.052;8.354;2023-09-19T09:28:35;19.00;99.90
16955;DHT22;8594;52.052;8.354;2023-09-19T09:31:04;18.60;99.90
16955;DHT22;8594;52.052;8.354;2023-09-19T09:33:34;18.50;99.90
16955;DHT22;8594;52.052;8.354;2023-09-19T09:36:03;18.60;99.90
16955;DHT22;8594;52.052;8.354;2023-09-19T09:38:43;18.40;99.90
16955;DHT22;8594;52.052;8.354;2023-09-19T09:41:15;18.70;99.90
16955;DHT22;8594;52.052;8.354;2023-09-19T09:43:53;19.00;99.90
16955;DHT22;8594;52.052;8.354;2023-09-19T09:46:22;19.40;99.90
16955;DHT22;8594;52.052;8.354;2023-09-19T09:49:25;19.60;99.90
16955;DHT22;8594;52.052;8.354;2023-09-19T09:52:00;19.90;99.90
16955;DHT22;8594;52.052;8.354;2023-09-19T09:54:32;20.00;99.90
16955;DHT22;8594;52.052;8.354;2023-09-19T09:57:06;19.50;99.90
16955;DHT22;8594;52.052;8.354;2023-09-19T09:59:50;19.90;99.90
16955;DHT22;8594;52.052;8.354;2023-09-19T10:02:20;20.10;99.90
16955;DHT22;8594;52.052;8.354;2023-09-19T10:04:54;19.90;99.90
16955;DHT22;8594;52.052;8.354;2023-09-19T10:07:34;19.90;99.90
16955;DHT22;8594;52.052;8.354;2023-09-19T10:10:05;20.40;99.90
16955;DHT22;8594;52.052;8.354;2023-09-19T10:12:47;20.20;99.90
16955;DHT22;8594;52.052;8.354;2023-09-19T10:15:16;19.50;99.90
16955;DHT22;8594;52.052;8.354;2023-09-19T10:17:46;19.80;99.90
16955;DHT22;8594;52.052;8.354;2023-09-19T10:20:15;19.80;99.90
16955;DHT22;8594;52.052;8.354;2023-09-19T10:23:06;19.70;99.90
16955;DHT22;8594;52.052;8.354;2023-09-19T10:25:37;20.20;99.90
16955;DHT22;8594;52.052;8.354;2023-09-19T10:28:08;20.20;99.90
16955;DHT22;8594;52.052;8.354;2023-09-19T10:30:51;20.30;99.90
16955;DHT22;8594;52.052;8.354;2023-09-19T10:33:20;20.30;99.90
16955;DHT22;8594;52.052;8.354;2023-09-19T10:35:49;20.10;99.90
16955;DHT22;8594;52.052;8.354;2023-09-19T10:38:18;20.10;99.90
16955;DHT22;8594;52.052;8.354;2023-09-19T10:40:50;19.80;99.90
16955;DHT22;8594;52.052;8.354;2023-09-19T10:43:20;19.60;99.90
16955;DHT22;8594;52.052;8.354;2023-09-19T10:45:49;19.20;99.90
16955;DHT22;8594;52.052;8.354;2023-09-19T10:48:19;19.30;99.90
16955;DHT22;8594;52.052;8.354;2023-09-19T10:50:53;19.60;99.90
16955;DHT22;8594;52.052;8.354;2023-09-19T10:53:39;19.90;99.90
16955;DHT22;8594;52.052;8.354;2023-09-19T10:56:19;19.90;99.90
16955;DHT22;8594;52.052;8.354;2023-09-19T10:58:51;20.00;99.90
16955;DHT22;8594;52.052;8.354;2023-09-19T11:01:18;19.90;99.90
16955;DHT22;8594;52.052;8.354;2023-09-19T11:03:46;20.10;99.90
16955;DHT22;8594;52.052;8.354;2023-09-19T11:06:19;20.10;99.90
16955;DHT22;8594;52.052;8.354;2023-09-19T11:08:57;20.40;99.90
16955;DHT22;8594;52.052;8.354;2023-09-19T11:11:48;20.30;99.90
16955;DHT22;8594;52.052;8.354;2023-09-19T11:14:40;20.50;99.90
16955;DHT22;8594;52.052;8.354;2023-09-19T11:17:33;20.20;99.90
16955;DHT22;8594;52.052;8.354;2023-09-19T11:20:19;20.00;99.90
16955;DHT22;8594;52.052;8.354;2023-09-19T11:23:23;20.20;99.90
16955;DHT22;8594;52.052;8.354;2023-09-19T11:25:53;20.50;99.90
16955;DHT22;8594;52.052;8.354;2023-09-19T11:28:31;20.80;99.90
16955;DHT22;8594;52.052;8.354;2023-09-19T11:34:46;20.60;99.90
16955;DHT22;8594;52.052;8.354;2023-09-19T11:40:36;20.40;99.90
16955;DHT22;8594;52.052;8.354;2023-09-19T11:43:28;20.80;99.90
16955;DHT22;8594;52.052;8.354;2023-09-19T11:46:05;21.20;99.90
16955;DHT22;8594;52.052;8.354;2023-09-19T11:48:34;21.40;99.90
16955;DHT22;8594;52.052;8.354;2023-09-19T11:51:19;21.20;99.90
16955;DHT22;8594;52.052;8.354;2023-09-19T11:53:50;20.80;99.90
16955;DHT22;8594;52.052;8.354;2023-09-19T11:56:19;21.10;99.90
16955;DHT22;8594;52.052;8.354;2023-09-19T11:58:50;21.00;99.90
16955;DHT22;8594;52.052;8.354;2023-09-19T12:01:24;20.80;99.90
16955;DHT22;8594;52.052;8.354;2023-09-19T12:03:56;20.70;99.90
16955;DHT22;8594;52.052;8.354;2023-09-19T12:06:25;20.40;99.90
16955;DHT22;8594;52.052;8.354;2023-09-19T12:08:53;20.70;99.90
16955;DHT22;8594;52.052;8.354;2023-09-19T12:11:21;21.10;99.90
16955;DHT22;8594;52.052;8.354;2023-09-19T12:13:50;20.70;99.90
16955;DHT22;8594;52.052;8.354;2023-09-19T12:16:19;20.90;99.90
16955;DHT22;8594;52.052;8.354;2023-09-19T12:18:50;20.80;99.90
16955;DHT22;8594;52.052;8.354;2023-09-19T12:21:27;20.90;99.90
16955;DHT22;8594;52.052;8.354;2023-09-19T12:23:58;21.10;99.90
16955;DHT22;8594;52.052;8.354;2023-09-19T12:26:26;21.10;99.90
16955;DHT22;8594;52.052;8.354;2023-09-19T12:28:55;21.30;99.90
16955;DHT22;8594;52.052;8.354;2023-09-19T12:31:22;21.10;99.90
16955;DHT22;8594;52.052;8.354;2023-09-19T12:33:55;21.00;99.90
16955;DHT22;8594;52.052;8.354;2023-09-19T12:36:23;21.20;99.90
16955;DHT22;8594;52.052;8.354;2023-09-19T12:38:55;21.00;99.90
16955;DHT22;8594;52.052;8.354;2023-09-19T12:41:24;21.30;99.90
16955;DHT22;8594;52.052;8.354;2023-09-19T12:43:52;21.30;99.90
16955;DHT22;8594;52.052;8.354;2023-09-19T12:46:20;21.20;99.90
16955;DHT22;8594;52.052;8.354;2023-09-19T12:49:16;21.40;99.90
16955;DHT22;8594;52.052;8.354;2023-09-19T12:51:45;21.70;99.90
16955;DHT22;8594;52.052;8.354;2023-09-19T12:54:13;21.60;99.90
16955;DHT22;8594;52.052;8.354;2023-09-19T12:56:43;21.50;99.90
16955;DHT22;8594;52.052;8.354;2023-09-19T12:59:12;21.40;99.90
16955;DHT22;8594;52.052;8.354;2023-09-19T13:01:40;21.40;99.90
16955;DHT22;8594;52.052;8.354;2023-09-19T13:04:16;21.50;99.90
16955;DHT22;8594;52.052;8.354;2023-09-19T13:06:53;21.70;99.90
16955;DHT22;8594;52.052;8.354;2023-09-19T13:09:21;21.50;99.90
16955;DHT22;8594;52.052;8.354;2023-09-19T13:11:50;21.30;99.90
16955;DHT22;8594;52.052;8.354;2023-09-19T13:14:21;21.50;99.90
16955;DHT22;8594;52.052;8.354;2023-09-19T13:16:56;21.40;99.90
16955;DHT22;8594;52.052;8.354;2023-09-19T13:19:35;21.20;99.90
16955;DHT22;8594;52.052;8.354;2023-09-19T13:22:38;21.40;99.90
16955;DHT22;8594;52.052;8.354;2023-09-19T13:25:08;21.20;99.90
16955;DHT22;8594;52.052;8.354;2023-09-19T13:27:41;21.30;99.90
16955;DHT22;8594;52.052;8.354;2023-09-19T13:30:10;21.40;99.90
16955;DHT22;8594;52.052;8.354;2023-09-19T13:32:38;21.00;99.90
16955;DHT22;8594;52.052;8.354;2023-09-19T13:35:07;21.10;99.90
16955;DHT22;8594;52.052;8.354;2023-09-19T13:37:35;21.20;99.90
16955;DHT22;8594;52.052;8.354;2023-09-19T13:40:09;21.30;99.90
16955;DHT22;8594;52.052;8.354;2023-09-19T13:42:36;21.20;99.90
16955;DHT22;8594;52.052;8.354;2023-09-19T13:45:04;21.30;99.90
16955;DHT22;8594;52.052;8.354;2023-09-19T13:47:32;21.50;99.90
16955;DHT22;8594;52.052;8.354;2023-09-19T13:49:59;21.50;99.90
16955;DHT22;8594;52.052;8.354;2023-09-19T13:52:30;21.30;99.90
16955;DHT22;8594;52.052;8.354;2023-09-19T13:54:57;21.60;99.90
16955;DHT22;8594;52.052;8.354;2023-09-19T13:57:26;21.80;99.90
16955;DHT22;8594;52.052;8.354;2023-09-19T13:59:55;21.70;99.90
16955;DHT22;8594;52.052;8.354;2023-09-19T14:02:22;21.40;99.90
16955;DHT22;8594;52.052;8.354;2023-09-19T14:04:50;21.30;99.90
16955;DHT22;8594;52.052;8.354;2023-09-19T14:07:18;21.30;99.90
16955;DHT22;8594;52.052;8.354;2023-09-19T14:09:45;21.20;99.90
16955;DHT22;8594;52.052;8.354;2023-09-19T14:12:13;21.50;99.90
16955;DHT22;8594;52.052;8.354;2023-09-19T14:14:41;21.80;99.90
16955;DHT22;8594;52.052;8.354;2023-09-19T14:17:08;21.90;99.90
16955;DHT22;8594;52.052;8.354;2023-09-19T14:19:35;21.60;99.90
16955;DHT22;8594;52.052;8.354;2023-09-19T14:22:04;21.80;99.90
16955;DHT22;8594;52.052;8.354;2023-09-19T14:24:33;22.10;99.90
16955;DHT22;8594;52.052;8.354;2023-09-19T14:27:00;21.90;99.90
16955;DHT22;8594;52.052;8.354;2023-09-19T14:29:29;21.80;99.90
16955;DHT22;8594;52.052;8.354;2023-09-19T14:31:58;21.70;99.90
16955;DHT22;8594;52.052;8.354;2023-09-19T14:34:25;21.60;99.90
16955;DHT22;8594;52.052;8.354;2023-09-19T14:36:52;21.70;99.90
16955;DHT22;8594;52.052;8.354;2023-09-19T14:39:19;21.80;99.90
16955;DHT22;8594;52.052;8.354;2023-09-19T14:41:46;21.40;99.90
16955;DHT22;8594;52.052;8.354;2023-09-19T14:44:13;21.40;99.90
16955;DHT22;8594;52.052;8.354;2023-09-19T14:46:41;21.30;99.90
16955;DHT22;8594;52.052;8.354;2023-09-19T14:49:10;21.20;99.90
16955;DHT22;8594;52.052;8.354;2023-09-19T14:51:38;21.40;99.90
16955;DHT22;8594;52.052;8.354;2023-09-19T14:54:06;21.30;99.90
16955;DHT22;8594;52.052;8.354;2023-09-19T14:56:34;21.40;99.90
16955;DHT22;8594;52.052;8.354;2023-09-19T14:59:00;21.20;99.90
16955;DHT22;8594;52.052;8.354;2023-09-19T15:01:28;21.20;99.90
16955;DHT22;8594;52.052;8.354;2023-09-19T15:03:55;21.00;99.90
16955;DHT22;8594;52.052;8.354;2023-09-19T15:06:24;21.10;99.90
16955;DHT22;8594;52.052;8.354;2023-09-19T15:08:52;20.90;99.90
16955;DHT22;8594;52.052;8.354;2023-09-19T15:11:19;20.90;99.90
16955;DHT22;8594;52.052;8.354;2023-09-19T15:13:47;21.00;99.90
16955;DHT22;8594;52.052;8.354;2023-09-19T15:16:17;20.80;99.90
16955;DHT22;8594;52.052;8.354;2023-09-19T15:18:45;21.00;99.90
16955;DHT22;8594;52.052;8.354;2023-09-19T15:21:14;20.90;99.90
16955;DHT22;8594;52.052;8.354;2023-09-19T15:23:43;21.00;99.90
16955;DHT22;8594;52.052;8.354;2023-09-19T15:26:12;20.90;99.90
16955;DHT22;8594;52.052;8.354;2023-09-19T15:28:44;20.90;99.90
16955;DHT22;8594;52.052;8.354;2023-09-19T15:31:11;21.00;99.90
16955;DHT22;8594;52.052;8.354;2023-09-19T15:33:39;20.70;99.90
16955;DHT22;8594;52.052;8.354;2023-09-19T15:36:08;20.80;99.90
16955;DHT22;8594;52.052;8.354;2023-09-19T15:38:58;20.90;99.90
16955;DHT22;8594;52.052;8.354;2023-09-19T15:41:29;21.00;99.90
16955;DHT22;8594;52.052;8.354;2023-09-19T15:43:58;21.00;99.90
16955;DHT22;8594;52.052;8.354;2023-09-19T15:46:27;21.00;99.90
16955;DHT22;8594;52.052;8.354;2023-09-19T15:48:55;20.80;99.90
16955;DHT22;8594;52.052;8.354;2023-09-19T15:51:22;20.80;99.90
16955;DHT22;8594;52.052;8.354;2023-09-19T15:53:51;20.90;99.90
16955;DHT22;8594;52.052;8.354;2023-09-19T15:56:21;20.80;99.90
16955;DHT22;8594;52.052;8.354;2023-09-19T15:58:50;20.90;99.90
16955;DHT22;8594;52.052;8.354;2023-09-19T16:01:18;20.80;99.90
16955;DHT22;8594;52.052;8.354;2023-09-19T16:03:47;20.90;99.90
16955;DHT22;8594;52.052;8.354;2023-09-19T16:06:16;20.90;99.90
16955;DHT22;8594;52.052;8.354;2023-09-19T16:08:45;20.70;99.90
16955;DHT22;8594;52.052;8.354;2023-09-19T16:11:14;20.60;99.90
16955;DHT22;8594;52.052;8.354;2023-09-19T16:13:43;20.50;99.90
16955;DHT22;8594;52.052;8.354;2023-09-19T16:16:12;20.50;99.90